sensor_id;sensor_type;location;lat;lon;timestamp;P1;durP1;ratioP1;P2;durP2;ratioP2
20443;SDS011;10381;53.730;10.010;2023-01-15T00:03:59;1036.07;;;765.17;;
20443;SDS011;10381;53.730;10.010;2023-01-15T00:08:02;1024.60;;;767.17;;
20443;SDS011;10381;53.730;10.010;2023-01-15T00:12:03;1014.58;;;782.05;;
20443;SDS011;10381;53.730;10.010;2023-01-15T00:16:04;983.78;;;786.13;;
20443;SDS011;10381;53.730;10.010;2023-01-15T00:20:09;940.03;;;787.60;;
20443;SDS011;10381;53.730;10.010;2023-01-15T00:24:10;904.67;;;783.15;;
20443;SDS011;10381;53.730;10.010;2023-01-15T00:28:29;879.38;;;787.83;;
20443;SDS011;10381;53.730;10.010;2023-01-15T00:32:29;813.93;;;739.23;;
20443;SDS011;10381;53.730;10.010;2023-01-15T00:36:30;550.65;;;498.88;;
20443;SDS011;10381;53.730;10.010;2023-01-15T00:40:30;389.37;;;351.60;;
20443;SDS011;10381;53.730;10.010;2023-01-15T00:44:30;348.00;;;316.23;;
20443;SDS011;10381;53.730;10.010;2023-01-15T00:48:32;312.38;;;284.95;;
20443;SDS011;10381;53.730;10.010;2023-01-15T00:52:32;290.45;;;265.13;;
20443;SDS011;10381;53.730;10.010;2023-01-15T00:56:33;255.75;;;233.98;;
20443;SDS011;10381;53.730;10.010;2023-01-15T01:00:34;224.32;;;204.80;;
20443;SDS011;10381;53.730;10.010;2023-01-15T01:04:34;200.73;;;183.10;;
20443;SDS011;10381;53.730;10.010;2023-01-15T01:08:34;181.02;;;165.10;;
20443;SDS011;10381;53.730;10.010;2023-01-15T01:12:35;169.02;;;153.60;;
20443;SDS011;10381;53.730;10.010;2023-01-15T01:16:37;162.98;;;148.35;;
20443;SDS011;10381;53.730;10.010;2023-01-15T01:20:38;160.05;;;145.10;;
20443;SDS011;10381;53.730;10.010;2023-01-15T01:24:38;153.75;;;140.05;;
20443;SDS011;10381;53.730;10.010;2023-01-15T01:28:39;154.30;;;140.05;;
20443;SDS011;10381;53.730;10.010;2023-01-15T01:32:43;140.35;;;127.28;;
20443;SDS011;10381;53.730;10.010;2023-01-15T01:36:44;142.32;;;128.65;;
20443;SDS011;10381;53.730;10.010;2023-01-15T01:40:44;134.98;;;122.68;;
20443;SDS011;10381;53.730;10.010;2023-01-15T01:48:45;136.25;;;122.78;;
20443;SDS011;10381;53.730;10.010;2023-01-15T01:52:48;131.98;;;119.57;;
20443;SDS011;10381;53.730;10.010;2023-01-15T01:56:52;129.95;;;117.60;;
20443;SDS011;10381;53.730;10.010;2023-01-15T02:00:53;126.85;;;114.38;;
20443;SDS011;10381;53.730;10.010;2023-01-15T02:04:53;122.45;;;110.70;;
20443;SDS011;10381;53.730;10.010;2023-01-15T02:08:54;120.33;;;109.00;;
20443;SDS011;10381;53.730;10.010;2023-01-15T02:12:58;116.72;;;105.55;;
20443;SDS011;10381;53.730;10.010;2023-01-15T02:17:11;121.47;;;109.75;;
20443;SDS011;10381;53.730;10.010;2023-01-15T02:30:15;115.05;;;104.25;;
20443;SDS011;10381;53.730;10.010;2023-01-15T02:34:24;117.20;;;105.15;;
20443;SDS011;10381;53.730;10.010;2023-01-15T02:38:31;108.18;;;97.97;;
20443;SDS011;10381;53.730;10.010;2023-01-15T02:42:36;115.20;;;104.15;;
20443;SDS011;10381;53.730;10.010;2023-01-15T02:46:39;105.88;;;96.10;;
20443;SDS011;10381;53.730;10.010;2023-01-15T02:50:43;102.60;;;92.68;;
20443;SDS011;10381;53.730;10.010;2023-01-15T02:59:12;102.20;;;93.10;;
20443;SDS011;10381;53.730;10.010;2023-01-15T03:03:30;94.00;;;84.35;;
20443;SDS011;10381;53.730;10.010;2023-01-15T03:07:41;80.07;;;72.72;;
20443;SDS011;10381;53.730;10.010;2023-01-15T03:11:48;70.95;;;64.78;;
20443;SDS011;10381;53.730;10.010;2023-01-15T03:16:07;75.93;;;69.47;;
20443;SDS011;10381;53.730;10.010;2023-01-15T03:20:33;81.60;;;74.65;;
20443;SDS011;10381;53.730;10.010;2023-01-15T03:24:39;69.32;;;63.08;;
20443;SDS011;10381;53.730;10.010;2023-01-15T03:28:46;70.60;;;64.28;;
20443;SDS011;10381;53.730;10.010;2023-01-15T03:32:48;62.70;;;57.15;;
20443;SDS011;10381;53.730;10.010;2023-01-15T03:36:49;68.95;;;62.70;;
20443;SDS011;10381;53.730;10.010;2023-01-15T03:40:52;64.70;;;58.85;;
20443;SDS011;10381;53.730;10.010;2023-01-15T03:53:22;63.60;;;57.80;;
20443;SDS011;10381;53.730;10.010;2023-01-15T03:57:31;63.38;;;56.92;;
20443;SDS011;10381;53.730;10.010;2023-01-15T04:01:37;49.83;;;45.33;;
20443;SDS011;10381;53.730;10.010;2023-01-15T04:05:40;62.63;;;57.10;;
20443;SDS011;10381;53.730;10.010;2023-01-15T04:09:42;55.97;;;50.78;;
20443;SDS011;10381;53.730;10.010;2023-01-15T04:13:42;52.83;;;47.92;;
20443;SDS011;10381;53.730;10.010;2023-01-15T04:17:43;58.10;;;51.97;;
20443;SDS011;10381;53.730;10.010;2023-01-15T04:21:43;53.88;;;48.90;;
20443;SDS011;10381;53.730;10.010;2023-01-15T04:25:44;49.50;;;44.87;;
20443;SDS011;10381;53.730;10.010;2023-01-15T04:29:44;46.67;;;42.67;;
20443;SDS011;10381;53.730;10.010;2023-01-15T04:33:44;47.60;;;42.73;;
20443;SDS011;10381;53.730;10.010;2023-01-15T04:37:45;46.07;;;42.07;;
20443;SDS011;10381;53.730;10.010;2023-01-15T04:41:45;47.22;;;43.05;;
20443;SDS011;10381;53.730;10.010;2023-01-15T04:46:04;50.17;;;45.05;;
20443;SDS011;10381;53.730;10.010;2023-01-15T04:50:04;40.57;;;36.97;;
20443;SDS011;10381;53.730;10.010;2023-01-15T04:54:06;43.08;;;39.13;;
20443;SDS011;10381;53.730;10.010;2023-01-15T04:58:07;53.92;;;36.20;;
20443;SDS011;10381;53.730;10.010;2023-01-15T05:02:08;40.67;;;36.67;;
20443;SDS011;10381;53.730;10.010;2023-01-15T05:06:08;34.87;;;31.57;;
20443;SDS011;10381;53.730;10.010;2023-01-15T05:10:09;31.02;;;28.08;;
20443;SDS011;10381;53.730;10.010;2023-01-15T05:14:09;29.23;;;26.33;;
20443;SDS011;10381;53.730;10.010;2023-01-15T05:18:10;27.53;;;24.97;;
20443;SDS011;10381;53.730;10.010;2023-01-15T05:22:13;28.35;;;25.65;;
20443;SDS011;10381;53.730;10.010;2023-01-15T05:26:14;38.67;;;26.83;;
20443;SDS011;10381;53.730;10.010;2023-01-15T05:30:14;27.27;;;24.92;;
20443;SDS011;10381;53.730;10.010;2023-01-15T05:34:15;28.98;;;25.85;;
20443;SDS011;10381;53.730;10.010;2023-01-15T05:38:15;29.13;;;26.03;;
20443;SDS011;10381;53.730;10.010;2023-01-15T05:42:15;26.92;;;24.48;;
20443;SDS011;10381;53.730;10.010;2023-01-15T05:46:16;25.07;;;21.97;;
20443;SDS011;10381;53.730;10.010;2023-01-15T05:50:16;26.20;;;23.33;;
20443;SDS011;10381;53.730;10.010;2023-01-15T05:54:21;22.70;;;20.73;;
20443;SDS011;10381;53.730;10.010;2023-01-15T05:58:24;26.35;;;22.00;;
20443;SDS011;10381;53.730;10.010;2023-01-15T06:02:24;25.30;;;22.73;;
20443;SDS011;10381;53.730;10.010;2023-01-15T06:06:24;28.33;;;22.30;;
20443;SDS011;10381;53.730;10.010;2023-01-15T06:10:25;25.77;;;23.08;;
20443;SDS011;10381;53.730;10.010;2023-01-15T06:14:25;24.00;;;21.67;;
20443;SDS011;10381;53.730;10.010;2023-01-15T06:18:25;27.92;;;20.15;;
20443;SDS011;10381;53.730;10.010;2023-01-15T06:22:26;21.92;;;19.42;;
20443;SDS011;10381;53.730;10.010;2023-01-15T06:26:26;19.13;;;17.43;;
20443;SDS011;10381;53.730;10.010;2023-01-15T06:30:27;20.25;;;18.40;;
20443;SDS011;10381;53.730;10.010;2023-01-15T06:34:27;20.07;;;16.73;;
20443;SDS011;10381;53.730;10.010;2023-01-15T06:38:27;18.40;;;15.97;;
20443;SDS011;10381;53.730;10.010;2023-01-15T06:42:27;23.92;;;16.83;;
20443;SDS011;10381;53.730;10.010;2023-01-15T06:46:47;19.60;;;16.58;;
20443;SDS011;10381;53.730;10.010;2023-01-15T06:51:07;18.55;;;15.45;;
20443;SDS011;10381;53.730;10.010;2023-01-15T06:55:08;16.92;;;15.40;;
20443;SDS011;10381;53.730;10.010;2023-01-15T06:59:10;19.65;;;16.05;;
20443;SDS011;10381;53.730;10.010;2023-01-15T07:03:10;18.77;;;15.93;;
20443;SDS011;10381;53.730;10.010;2023-01-15T07:07:13;18.80;;;15.80;;
20443;SDS011;10381;53.730;10.010;2023-01-15T07:11:15;24.67;;;16.17;;
20443;SDS011;10381;53.730;10.010;2023-01-15T07:15:16;20.67;;;15.77;;
20443;SDS011;10381;53.730;10.010;2023-01-15T07:19:17;19.33;;;15.77;;
20443;SDS011;10381;53.730;10.010;2023-01-15T07:23:17;18.40;;;15.00;;
20443;SDS011;10381;53.730;10.010;2023-01-15T07:27:18;22.37;;;14.93;;
20443;SDS011;10381;53.730;10.010;2023-01-15T07:31:18;22.77;;;16.17;;
20443;SDS011;10381;53.730;10.010;2023-01-15T07:35:19;25.90;;;15.65;;
20443;SDS011;10381;53.730;10.010;2023-01-15T07:39:19;20.47;;;15.50;;
20443;SDS011;10381;53.730;10.010;2023-01-15T07:43:19;19.30;;;14.35;;
20443;SDS011;10381;53.730;10.010;2023-01-15T07:47:38;19.48;;;15.05;;
20443;SDS011;10381;53.730;10.010;2023-01-15T07:51:57;18.13;;;15.20;;
20443;SDS011;10381;53.730;10.010;2023-01-15T07:55:57;21.45;;;15.35;;
20443;SDS011;10381;53.730;10.010;2023-01-15T07:59:58;26.27;;;15.32;;
20443;SDS011;10381;53.730;10.010;2023-01-15T08:03:58;18.58;;;15.35;;
20443;SDS011;10381;53.730;10.010;2023-01-15T08:07:58;17.00;;;15.20;;
20443;SDS011;10381;53.730;10.010;2023-01-15T08:11:59;21.80;;;15.03;;
20443;SDS011;10381;53.730;10.010;2023-01-15T08:16:18;21.58;;;15.32;;
20443;SDS011;10381;53.730;10.010;2023-01-15T08:20:22;22.47;;;15.60;;
20443;SDS011;10381;53.730;10.010;2023-01-15T08:24:24;21.35;;;15.73;;
20443;SDS011;10381;53.730;10.010;2023-01-15T08:28:25;22.17;;;16.20;;
20443;SDS011;10381;53.730;10.010;2023-01-15T08:32:26;20.23;;;14.70;;
20443;SDS011;10381;53.730;10.010;2023-01-15T08:36:26;20.93;;;14.77;;
20443;SDS011;10381;53.730;10.010;2023-01-15T08:40:27;17.60;;;13.73;;
20443;SDS011;10381;53.730;10.010;2023-01-15T08:44:27;21.50;;;14.90;;
20443;SDS011;10381;53.730;10.010;2023-01-15T08:48:28;14.80;;;13.40;;
20443;SDS011;10381;53.730;10.010;2023-01-15T08:52:29;21.70;;;14.15;;
20443;SDS011;10381;53.730;10.010;2023-01-15T08:56:30;15.93;;;14.30;;
20443;SDS011;10381;53.730;10.010;2023-01-15T09:00:30;21.80;;;14.68;;
20443;SDS011;10381;53.730;10.010;2023-01-15T09:04:30;16.83;;;15.03;;
20443;SDS011;10381;53.730;10.010;2023-01-15T09:08:30;16.95;;;14.05;;
20443;SDS011;10381;53.730;10.010;2023-01-15T09:12:31;19.10;;;14.37;;
20443;SDS011;10381;53.730;10.010;2023-01-15T09:16:31;16.63;;;14.45;;
20443;SDS011;10381;53.730;10.010;2023-01-15T09:20:32;18.33;;;15.38;;
20443;SDS011;10381;53.730;10.010;2023-01-15T09:24:32;23.70;;;14.95;;
20443;SDS011;10381;53.730;10.010;2023-01-15T09:28:33;21.17;;;14.50;;
20443;SDS011;10381;53.730;10.010;2023-01-15T09:32:34;16.98;;;15.23;;
20443;SDS011;10381;53.730;10.010;2023-01-15T09:36:34;16.30;;;14.70;;
20443;SDS011;10381;53.730;10.010;2023-01-15T09:53:46;15.07;;;13.50;;
20443;SDS011;10381;53.730;10.010;2023-01-15T09:57:54;14.85;;;13.35;;
20443;SDS011;10381;53.730;10.010;2023-01-15T10:01:58;16.13;;;14.15;;
20443;SDS011;10381;53.730;10.010;2023-01-15T10:10:26;15.40;;;13.95;;
20443;SDS011;10381;53.730;10.010;2023-01-15T10:14:40;16.83;;;14.18;;
20443;SDS011;10381;53.730;10.010;2023-01-15T10:18:46;15.23;;;13.85;;
20443;SDS011;10381;53.730;10.010;2023-01-15T10:27:25;15.82;;;14.35;;
20443;SDS011;10381;53.730;10.010;2023-01-15T10:35:58;23.70;;;13.70;;
20443;SDS011;10381;53.730;10.010;2023-01-15T10:40:11;15.55;;;14.02;;
20443;SDS011;10381;53.730;10.010;2023-01-15T10:44:43;20.13;;;14.23;;
20443;SDS011;10381;53.730;10.010;2023-01-15T10:49:25;16.38;;;14.80;;
20443;SDS011;10381;53.730;10.010;2023-01-15T10:53:27;15.88;;;14.15;;
20443;SDS011;10381;53.730;10.010;2023-01-15T10:57:45;16.30;;;14.55;;
20443;SDS011;10381;53.730;10.010;2023-01-15T11:02:29;18.00;;;14.95;;
20443;SDS011;10381;53.730;10.010;2023-01-15T11:06:32;17.90;;;14.75;;
20443;SDS011;10381;53.730;10.010;2023-01-15T11:10:34;22.35;;;14.27;;
20443;SDS011;10381;53.730;10.010;2023-01-15T11:18:56;19.65;;;14.45;;
20443;SDS011;10381;53.730;10.010;2023-01-15T11:23:20;19.40;;;14.77;;
20443;SDS011;10381;53.730;10.010;2023-01-15T11:27:24;21.08;;;14.38;;
20443;SDS011;10381;53.730;10.010;2023-01-15T11:31:35;18.23;;;14.95;;
20443;SDS011;10381;53.730;10.010;2023-01-15T11:35:37;18.23;;;14.90;;
20443;SDS011;10381;53.730;10.010;2023-01-15T11:39:56;21.52;;;15.02;;
20443;SDS011;10381;53.730;10.010;2023-01-15T11:44:08;15.73;;;14.02;;
20443;SDS011;10381;53.730;10.010;2023-01-15T11:48:27;15.27;;;13.88;;
20443;SDS011;10381;53.730;10.010;2023-01-15T11:52:53;13.85;;;12.50;;
20443;SDS011;10381;53.730;10.010;2023-01-15T11:56:54;14.23;;;12.73;;
20443;SDS011;10381;53.730;10.010;2023-01-15T12:00:55;15.32;;;13.48;;
20443;SDS011;10381;53.730;10.010;2023-01-15T12:04:58;14.80;;;13.40;;
20443;SDS011;10381;53.730;10.010;2023-01-15T12:09:04;17.42;;;14.77;;
20443;SDS011;10381;53.730;10.010;2023-01-15T12:17:47;14.80;;;13.60;;
20443;SDS011;10381;53.730;10.010;2023-01-15T12:26:00;17.02;;;15.30;;
20443;SDS011;10381;53.730;10.010;2023-01-15T12:34:19;18.15;;;14.23;;
20443;SDS011;10381;53.730;10.010;2023-01-15T12:38:45;15.75;;;14.35;;
20443;SDS011;10381;53.730;10.010;2023-01-15T12:42:47;17.00;;;15.27;;
20443;SDS011;10381;53.730;10.010;2023-01-15T12:47:11;18.42;;;14.82;;
20443;SDS011;10381;53.730;10.010;2023-01-15T12:51:18;15.82;;;14.30;;
20443;SDS011;10381;53.730;10.010;2023-01-15T12:55:25;17.85;;;15.98;;
20443;SDS011;10381;53.730;10.010;2023-01-15T12:59:36;17.48;;;15.75;;
20443;SDS011;10381;53.730;10.010;2023-01-15T13:08:00;18.70;;;15.50;;
20443;SDS011;10381;53.730;10.010;2023-01-15T13:12:12;16.40;;;14.77;;
20443;SDS011;10381;53.730;10.010;2023-01-15T13:16:18;17.23;;;15.13;;
20443;SDS011;10381;53.730;10.010;2023-01-15T13:20:30;18.08;;;16.23;;
20443;SDS011;10381;53.730;10.010;2023-01-15T13:25:03;17.60;;;15.43;;
20443;SDS011;10381;53.730;10.010;2023-01-15T13:37:49;18.88;;;16.23;;
20443;SDS011;10381;53.730;10.010;2023-01-15T13:41:53;17.25;;;15.60;;
20443;SDS011;10381;53.730;10.010;2023-01-15T13:46:17;16.15;;;14.63;;
20443;SDS011;10381;53.730;10.010;2023-01-15T13:50:30;17.45;;;14.90;;
20443;SDS011;10381;53.730;10.010;2023-01-15T13:54:33;18.63;;;14.38;;
20443;SDS011;10381;53.730;10.010;2023-01-15T13:58:51;15.45;;;13.90;;
20443;SDS011;10381;53.730;10.010;2023-01-15T14:02:53;15.98;;;14.50;;
20443;SDS011;10381;53.730;10.010;2023-01-15T14:06:55;18.33;;;14.77;;
20443;SDS011;10381;53.730;10.010;2023-01-15T14:10:56;16.50;;;14.60;;
20443;SDS011;10381;53.730;10.010;2023-01-15T14:15:02;16.50;;;14.50;;
20443;SDS011;10381;53.730;10.010;2023-01-15T14:24:07;21.75;;;16.10;;
20443;SDS011;10381;53.730;10.010;2023-01-15T14:28:25;16.83;;;14.98;;
20443;SDS011;10381;53.730;10.010;2023-01-15T14:41:22;16.80;;;15.18;;
20443;SDS011;10381;53.730;10.010;2023-01-15T14:49:44;16.70;;;15.00;;
20443;SDS011;10381;53.730;10.010;2023-01-15T14:58:06;17.23;;;14.68;;
20443;SDS011;10381;53.730;10.010;2023-01-15T15:02:36;18.30;;;14.80;;
20443;SDS011;10381;53.730;10.010;2023-01-15T15:06:43;26.83;;;24.02;;
20443;SDS011;10381;53.730;10.010;2023-01-15T15:10:49;349.75;;;321.27;;
20443;SDS011;10381;53.730;10.010;2023-01-15T15:15:05;605.88;;;551.38;;
20443;SDS011;10381;53.730;10.010;2023-01-15T15:19:34;734.15;;;666.88;;
20443;SDS011;10381;53.730;10.010;2023-01-15T15:23:43;858.10;;;778.08;;
20443;SDS011;10381;53.730;10.010;2023-01-15T15:28:02;930.28;;;835.53;;
20443;SDS011;10381;53.730;10.010;2023-01-15T15:32:04;955.58;;;856.80;;
20443;SDS011;10381;53.730;10.010;2023-01-15T15:36:05;979.78;;;871.28;;
20443;SDS011;10381;53.730;10.010;2023-01-15T15:40:16;1053.35;;;901.78;;
20443;SDS011;10381;53.730;10.010;2023-01-15T15:44:26;1060.53;;;908.28;;
20443;SDS011;10381;53.730;10.010;2023-01-15T15:48:55;1039.40;;;888.28;;
20443;SDS011;10381;53.730;10.010;2023-01-15T15:52:56;1024.60;;;883.90;;
20443;SDS011;10381;53.730;10.010;2023-01-15T15:57:01;1051.55;;;886.00;;
20443;SDS011;10381;53.730;10.010;2023-01-15T16:01:09;1039.47;;;884.40;;
20443;SDS011;10381;53.730;10.010;2023-01-15T16:09:21;987.03;;;860.40;;
20443;SDS011;10381;53.730;10.010;2023-01-15T16:13:26;935.38;;;833.22;;
20443;SDS011;10381;53.730;10.010;2023-01-15T16:17:29;932.08;;;833.35;;
20443;SDS011;10381;53.730;10.010;2023-01-15T16:21:31;859.85;;;775.33;;
20443;SDS011;10381;53.730;10.010;2023-01-15T16:25:35;701.65;;;635.85;;
20443;SDS011;10381;53.730;10.010;2023-01-15T16:29:39;499.27;;;449.25;;
20443;SDS011;10381;53.730;10.010;2023-01-15T16:33:39;349.25;;;316.40;;
20443;SDS011;10381;53.730;10.010;2023-01-15T16:37:39;287.45;;;261.73;;
20443;SDS011;10381;53.730;10.010;2023-01-15T16:41:41;186.35;;;168.77;;
20443;SDS011;10381;53.730;10.010;2023-01-15T16:54:42;97.00;;;87.60;;
20443;SDS011;10381;53.730;10.010;2023-01-15T16:58:42;96.20;;;87.32;;
20443;SDS011;10381;53.730;10.010;2023-01-15T17:02:43;106.82;;;96.15;;
20443;SDS011;10381;53.730;10.010;2023-01-15T17:06:52;112.40;;;101.05;;
20443;SDS011;10381;53.730;10.010;2023-01-15T17:11:01;118.32;;;105.78;;
20443;SDS011;10381;53.730;10.010;2023-01-15T17:19:15;163.02;;;146.05;;
20443;SDS011;10381;53.730;10.010;2023-01-15T17:23:15;229.82;;;206.18;;
20443;SDS011;10381;53.730;10.010;2023-01-15T17:27:20;456.33;;;411.10;;
20443;SDS011;10381;53.730;10.010;2023-01-15T17:31:23;663.22;;;600.90;;
20443;SDS011;10381;53.730;10.010;2023-01-15T17:35:30;854.90;;;774.40;;
20443;SDS011;10381;53.730;10.010;2023-01-15T17:39:33;975.25;;;869.70;;
20443;SDS011;10381;53.730;10.010;2023-01-15T17:43:33;993.20;;;879.97;;
20443;SDS011;10381;53.730;10.010;2023-01-15T17:47:34;1006.38;;;881.60;;
20443;SDS011;10381;53.730;10.010;2023-01-15T17:51:34;980.13;;;870.80;;
20443;SDS011;10381;53.730;10.010;2023-01-15T17:55:34;1099.18;;;915.42;;
20443;SDS011;10381;53.730;10.010;2023-01-15T17:59:53;1047.28;;;892.72;;
20443;SDS011;10381;53.730;10.010;2023-01-15T18:04:26;1020.47;;;888.03;;
20443;SDS011;10381;53.730;10.010;2023-01-15T18:08:49;1060.88;;;892.33;;
20443;SDS011;10381;53.730;10.010;2023-01-15T18:12:52;970.45;;;864.08;;
20443;SDS011;10381;53.730;10.010;2023-01-15T18:16:53;977.00;;;871.20;;
20443;SDS011;10381;53.730;10.010;2023-01-15T18:20:53;956.55;;;854.75;;
20443;SDS011;10381;53.730;10.010;2023-01-15T18:24:53;913.97;;;821.57;;
20443;SDS011;10381;53.730;10.010;2023-01-15T18:28:54;779.28;;;705.22;;
20443;SDS011;10381;53.730;10.010;2023-01-15T18:32:55;715.77;;;647.57;;
20443;SDS011;10381;53.730;10.010;2023-01-15T18:36:55;595.10;;;536.05;;
20443;SDS011;10381;53.730;10.010;2023-01-15T18:40:55;506.90;;;455.55;;
20443;SDS011;10381;53.730;10.010;2023-01-15T18:44:56;366.58;;;332.20;;
20443;SDS011;10381;53.730;10.010;2023-01-15T18:49:15;326.10;;;296.48;;
20443;SDS011;10381;53.730;10.010;2023-01-15T18:53:15;304.17;;;277.10;;
20443;SDS011;10381;53.730;10.010;2023-01-15T18:57:15;255.10;;;232.40;;
20443;SDS011;10381;53.730;10.010;2023-01-15T19:01:16;180.18;;;163.20;;
20443;SDS011;10381;53.730;10.010;2023-01-15T19:05:16;148.30;;;134.53;;
20443;SDS011;10381;53.730;10.010;2023-01-15T19:09:20;140.70;;;126.97;;
20443;SDS011;10381;53.730;10.010;2023-01-15T19:13:23;110.55;;;100.30;;
20443;SDS011;10381;53.730;10.010;2023-01-15T19:17:23;107.57;;;97.53;;
20443;SDS011;10381;53.730;10.010;2023-01-15T19:21:43;97.18;;;88.10;;
20443;SDS011;10381;53.730;10.010;2023-01-15T19:25:44;106.40;;;96.90;;
20443;SDS011;10381;53.730;10.010;2023-01-15T19:29:47;105.47;;;95.97;;
20443;SDS011;10381;53.730;10.010;2023-01-15T19:33:47;109.25;;;98.78;;
20443;SDS011;10381;53.730;10.010;2023-01-15T19:37:48;110.15;;;100.13;;
20443;SDS011;10381;53.730;10.010;2023-01-15T19:41:49;100.70;;;91.25;;
20443;SDS011;10381;53.730;10.010;2023-01-15T19:46:08;93.57;;;84.72;;
20443;SDS011;10381;53.730;10.010;2023-01-15T19:50:32;97.32;;;88.10;;
20443;SDS011;10381;53.730;10.010;2023-01-15T19:54:37;93.28;;;85.18;;
20443;SDS011;10381;53.730;10.010;2023-01-15T19:58:55;89.03;;;80.15;;
20443;SDS011;10381;53.730;10.010;2023-01-15T20:02:56;90.83;;;82.47;;
20443;SDS011;10381;53.730;10.010;2023-01-15T20:06:56;78.03;;;70.75;;
20443;SDS011;10381;53.730;10.010;2023-01-15T20:10:56;77.93;;;70.93;;
20443;SDS011;10381;53.730;10.010;2023-01-15T20:14:57;83.03;;;74.50;;
20443;SDS011;10381;53.730;10.010;2023-01-15T20:18:57;80.72;;;73.25;;
20443;SDS011;10381;53.730;10.010;2023-01-15T20:22:58;86.23;;;77.83;;
20443;SDS011;10381;53.730;10.010;2023-01-15T20:26:58;86.85;;;78.57;;
20443;SDS011;10381;53.730;10.010;2023-01-15T20:30:58;86.73;;;78.10;;
20443;SDS011;10381;53.730;10.010;2023-01-15T20:34:59;88.18;;;79.57;;
20443;SDS011;10381;53.730;10.010;2023-01-15T20:39:00;79.40;;;72.38;;
20443;SDS011;10381;53.730;10.010;2023-01-15T20:43:00;75.07;;;68.05;;
20443;SDS011;10381;53.730;10.010;2023-01-15T20:47:23;65.20;;;59.38;;
20443;SDS011;10381;53.730;10.010;2023-01-15T20:51:44;61.25;;;55.60;;
20443;SDS011;10381;53.730;10.010;2023-01-15T20:55:46;61.22;;;55.85;;
20443;SDS011;10381;53.730;10.010;2023-01-15T20:59:46;55.50;;;50.05;;
20443;SDS011;10381;53.730;10.010;2023-01-15T21:03:46;61.33;;;55.53;;
20443;SDS011;10381;53.730;10.010;2023-01-15T21:07:47;62.92;;;57.53;;
20443;SDS011;10381;53.730;10.010;2023-01-15T21:11:47;59.40;;;54.10;;
20443;SDS011;10381;53.730;10.010;2023-01-15T21:15:54;57.58;;;52.40;;
20443;SDS011;10381;53.730;10.010;2023-01-15T21:20:00;58.22;;;52.78;;
20443;SDS011;10381;53.730;10.010;2023-01-15T21:24:00;54.80;;;49.97;;
20443;SDS011;10381;53.730;10.010;2023-01-15T21:28:00;57.20;;;51.78;;
20443;SDS011;10381;53.730;10.010;2023-01-15T21:32:01;55.83;;;50.10;;
20443;SDS011;10381;53.730;10.010;2023-01-15T21:36:04;55.00;;;49.90;;
20443;SDS011;10381;53.730;10.010;2023-01-15T21:40:10;52.00;;;46.88;;
20443;SDS011;10381;53.730;10.010;2023-01-15T21:44:11;49.80;;;45.05;;
20443;SDS011;10381;53.730;10.010;2023-01-15T21:48:32;49.05;;;44.53;;
20443;SDS011;10381;53.730;10.010;2023-01-15T21:52:32;45.90;;;41.40;;
20443;SDS011;10381;53.730;10.010;2023-01-15T21:56:33;47.42;;;42.92;;
20443;SDS011;10381;53.730;10.010;2023-01-15T22:00:33;57.67;;;51.77;;
20443;SDS011;10381;53.730;10.010;2023-01-15T22:04:34;54.37;;;49.77;;
20443;SDS011;10381;53.730;10.010;2023-01-15T22:08:34;65.70;;;59.90;;
20443;SDS011;10381;53.730;10.010;2023-01-15T22:12:35;67.60;;;61.40;;
20443;SDS011;10381;53.730;10.010;2023-01-15T22:16:40;75.30;;;68.10;;
20443;SDS011;10381;53.730;10.010;2023-01-15T22:20:41;83.50;;;75.85;;
20443;SDS011;10381;53.730;10.010;2023-01-15T22:24:41;86.50;;;78.17;;
20443;SDS011;10381;53.730;10.010;2023-01-15T22:28:42;90.82;;;82.28;;
20443;SDS011;10381;53.730;10.010;2023-01-15T22:32:43;88.63;;;80.05;;
20443;SDS011;10381;53.730;10.010;2023-01-15T22:36:43;93.78;;;84.97;;
20443;SDS011;10381;53.730;10.010;2023-01-15T22:40:44;97.78;;;88.72;;
20443;SDS011;10381;53.730;10.010;2023-01-15T22:44:44;96.20;;;87.30;;
20443;SDS011;10381;53.730;10.010;2023-01-15T22:48:47;99.57;;;90.07;;
20443;SDS011;10381;53.730;10.010;2023-01-15T22:52:47;102.97;;;93.43;;
20443;SDS011;10381;53.730;10.010;2023-01-15T22:56:47;99.73;;;90.43;;
20443;SDS011;10381;53.730;10.010;2023-01-15T23:00:51;94.90;;;86.23;;
20443;SDS011;10381;53.730;10.010;2023-01-15T23:04:53;102.97;;;93.68;;
20443;SDS011;10381;53.730;10.010;2023-01-15T23:08:57;98.43;;;89.37;;
20443;SDS011;10381;53.730;10.010;2023-01-15T23:12:59;94.20;;;85.78;;
20443;SDS011;10381;53.730;10.010;2023-01-15T23:16:59;101.35;;;92.45;;
20443;SDS011;10381;53.730;10.010;2023-01-15T23:21:10;91.10;;;83.05;;
20443;SDS011;10381;53.730;10.010;2023-01-15T23:25:13;87.55;;;79.88;;
20443;SDS011;10381;53.730;10.010;2023-01-15T23:29:13;89.95;;;81.97;;
20443;SDS011;10381;53.730;10.010;2023-01-15T23:33:13;82.93;;;75.67;;
20443;SDS011;10381;53.730;10.010;2023-01-15T23:37:13;77.37;;;70.47;;
20443;SDS011;10381;53.730;10.010;2023-01-15T23:41:15;83.63;;;76.17;;
20443;SDS011;10381;53.730;10.010;2023-01-15T23:45:17;77.32;;;70.47;;
20443;SDS011;10381;53.730;10.010;2023-01-15T23:49:36;78.32;;;71.55;;
20443;SDS011;10381;53.730;10.010;2023-01-15T23:53:36;75.95;;;69.53;;
20443;SDS011;10381;53.730;10.010;2023-01-15T23:57:37;76.17;;;69.53;;
